Time,TemperatureF,DewpointF,PressureIn,WindDirection,WindDirectionDegrees,WindSpeedMPH,WindSpeedGustMPH,Humidity,HourlyPrecipIn,Conditions,Clouds,dailyrainin,SolarRadiationWatts/m^2,SoftwareType,DateUTC
2013-02-02 00:21:00,25.0,20.0,-100.00,NNE,20,5.0,6.0,82,0.00,,,0.01,0.000000,,2013-02-02 07:21:00,
2013-02-02 00:31:00,25.0,20.0,-100.00,NNE,20,5.0,6.0,82,0.00,,,0.01,0.000000,,2013-02-02 07:31:00,
2013-02-02 00:41:00,25.0,20.0,-100.00,NNE,20,5.0,6.0,82,0.00,,,0.01,0.000000,,2013-02-02 07:41:00,
2013-02-02 00:51:00,25.0,20.0,-100.00,NNE,20,5.0,6.0,82,0.00,,,0.01,0.000000,,2013-02-02 07:51:00,
2013-02-02 01:21:00,25.0,20.0,-100.00,NNE,12,5.0,6.0,82,-99.99,,,0.01,0.000000,,2013-02-02 08:21:00,
2013-02-02 01:31:00,25.0,20.0,-100.00,NNE,12,5.0,6.0,82,-99.99,,,0.01,0.000000,,2013-02-02 08:31:00,
2013-02-02 01:41:00,25.0,20.0,-100.00,NNE,12,5.0,6.0,82,-99.99,,,0.01,0.000000,,2013-02-02 08:41:00,
2013-02-02 01:52:00,25.0,20.0,-100.00,NNE,12,5.0,6.0,82,-99.99,,,0.01,0.000000,,2013-02-02 08:52:00,
2013-02-02 02:22:00,24.0,20.0,-100.00,ENE,58,1.0,7.0,85,0.00,,,0.01,0.000000,,2013-02-02 09:22:00,
2013-02-02 02:41:00,24.0,20.0,-100.00,ENE,58,1.0,7.0,85,0.00,,,0.01,0.000000,,2013-02-02 09:41:00,
2013-02-02 02:52:00,24.0,20.0,-100.00,ENE,58,1.0,7.0,85,0.00,,,0.01,0.000000,,2013-02-02 09:52:00,
2013-02-02 03:21:00,24.0,20.0,-100.00,NNE,33,3.0,6.0,84,0.00,,,0.01,0.000000,,2013-02-02 10:21:00,
2013-02-02 03:31:00,24.0,20.0,-100.00,NNE,33,3.0,6.0,84,0.00,,,0.01,0.000000,,2013-02-02 10:31:00,
2013-02-02 03:41:00,24.0,20.0,-100.00,NNE,33,3.0,6.0,84,0.00,,,0.01,0.000000,,2013-02-02 10:41:00,
2013-02-02 03:51:00,24.0,20.0,-100.00,NNE,33,3.0,6.0,84,0.00,,,0.01,0.000000,,2013-02-02 10:51:00,
2013-02-02 04:21:00,23.0,19.0,-100.00,NNE,26,2.0,5.0,85,0.00,,,0.01,0.000000,,2013-02-02 11:21:00,
2013-02-02 04:31:00,23.0,19.0,-100.00,NNE,26,2.0,5.0,85,0.00,,,0.01,0.000000,,2013-02-02 11:31:00,
2013-02-02 04:41:00,23.0,19.0,-100.00,NNE,26,2.0,5.0,85,0.00,,,0.01,0.000000,,2013-02-02 11:41:00,
2013-02-02 04:52:00,23.0,19.0,-100.00,NNE,26,2.0,5.0,85,0.00,,,0.01,0.000000,,2013-02-02 11:52:00,
2013-02-02 06:21:00,22.0,18.0,-100.00,NNW,345,3.0,4.0,85,-99.99,,,0.01,0.000000,,2013-02-02 13:21:00,
2013-02-02 06:32:00,22.0,18.0,-100.00,NNW,345,3.0,4.0,85,-99.99,,,0.01,0.000000,,2013-02-02 13:32:00,
2013-02-02 06:42:00,22.0,18.0,-100.00,NNW,345,3.0,4.0,85,-99.99,,,0.01,0.000000,,2013-02-02 13:42:00,
2013-02-02 06:51:00,22.0,18.0,-100.00,NNW,345,3.0,4.0,85,-99.99,,,0.01,0.000000,,2013-02-02 13:51:00,
2013-02-02 07:22:00,21.0,18.0,-100.00,NNE,15,3.0,5.0,87,-99.99,,,0.01,0.000000,,2013-02-02 14:22:00,
2013-02-02 07:32:00,21.0,18.0,-100.00,NNE,15,3.0,5.0,87,-99.99,,,0.01,0.000000,,2013-02-02 14:32:00,
2013-02-02 07:42:00,21.0,18.0,-100.00,NNE,15,3.0,5.0,87,-99.99,,,0.01,0.000000,,2013-02-02 14:42:00,
2013-02-02 07:52:00,21.0,18.0,-100.00,NNE,15,3.0,5.0,87,-99.99,,,0.01,0.000000,,2013-02-02 14:52:00,
2013-02-02 08:21:00,26.0,20.0,-100.00,North,355,2.0,4.0,77,-99.99,,,0.01,37.000000,,2013-02-02 15:21:00,
2013-02-02 09:22:00,30.0,20.0,-100.00,SSW,197,2.0,4.0,67,-99.99,,,0.00,220.000000,,2013-02-02 16:22:00,
2013-02-02 10:22:00,34.0,20.0,-100.00,South,180,3.0,5.0,56,-99.99,,,0.00,366.000000,,2013-02-02 17:22:00,
2013-02-02 11:22:00,37.0,21.0,-100.00,SSE,164,3.0,6.0,52,-99.99,,,0.00,491.000000,,2013-02-02 18:22:00,
2013-02-02 11:31:00,37.0,21.0,-100.00,SSE,164,3.0,6.0,52,-99.99,,,0.00,491.000000,,2013-02-02 18:31:00,
2013-02-02 11:42:00,37.0,21.0,-100.00,SSE,164,3.0,6.0,52,-99.99,,,0.00,491.000000,,2013-02-02 18:42:00,
2013-02-02 11:52:00,37.0,21.0,-100.00,SSE,164,3.0,6.0,52,-99.99,,,0.00,491.000000,,2013-02-02 18:52:00,
2013-02-02 12:21:00,41.0,22.0,-100.00,SSE,151,3.0,7.0,47,0.00,,,0.00,592.000000,,2013-02-02 19:21:00,
2013-02-02 12:32:00,41.0,22.0,-100.00,SSE,151,3.0,7.0,47,0.00,,,0.00,592.000000,,2013-02-02 19:32:00,
2013-02-02 12:41:00,41.0,22.0,-100.00,SSE,151,3.0,7.0,47,0.00,,,0.00,592.000000,,2013-02-02 19:41:00,
2013-02-02 12:51:00,41.0,22.0,-100.00,SSE,151,3.0,7.0,47,0.00,,,0.00,592.000000,,2013-02-02 19:51:00,
2013-02-02 13:21:00,44.0,22.0,-100.00,South,181,5.0,8.0,41,0.00,,,0.00,621.000000,,2013-02-02 20:21:00,
2013-02-02 13:32:00,44.0,22.0,-100.00,South,181,5.0,8.0,41,0.00,,,0.00,621.000000,,2013-02-02 20:32:00,
2013-02-02 13:41:00,44.0,22.0,-100.00,South,181,5.0,8.0,41,0.00,,,0.00,621.000000,,2013-02-02 20:41:00,
2013-02-02 13:52:00,44.0,22.0,-100.00,South,181,5.0,8.0,41,0.00,,,0.00,621.000000,,2013-02-02 20:52:00,
2013-02-02 14:21:00,43.0,20.0,-100.00,SSW,205,5.0,9.0,40,0.00,,,0.00,543.000000,,2013-02-02 21:21:00,
2013-02-02 14:32:00,43.0,20.0,-100.00,SSW,205,5.0,9.0,40,0.00,,,0.00,543.000000,,2013-02-02 21:32:00,
2013-02-02 14:42:00,43.0,20.0,-100.00,SSW,205,5.0,9.0,40,0.00,,,0.00,543.000000,,2013-02-02 21:42:00,
2013-02-02 14:51:00,43.0,20.0,-100.00,SSW,205,5.0,9.0,40,0.00,,,0.00,543.000000,,2013-02-02 21:51:00,
2013-02-02 15:21:00,43.0,23.0,-100.00,SW,218,4.0,9.0,44,0.00,,,0.00,396.000000,,2013-02-02 22:21:00,
2013-02-02 15:32:00,43.0,23.0,-100.00,SW,218,4.0,9.0,44,0.00,,,0.00,396.000000,,2013-02-02 22:32:00,
2013-02-02 15:42:00,43.0,23.0,-100.00,SW,218,4.0,9.0,44,0.00,,,0.00,396.000000,,2013-02-02 22:42:00,
2013-02-02 15:51:00,43.0,23.0,-100.00,SW,218,4.0,9.0,44,0.00,,,0.00,396.000000,,2013-02-02 22:51:00,
2013-02-02 16:21:00,43.0,24.0,-100.00,South,169,3.0,7.0,46,0.00,,,0.00,283.000000,,2013-02-02 23:21:00,
2013-02-02 16:32:00,43.0,24.0,-100.00,South,169,3.0,7.0,46,0.00,,,0.00,283.000000,,2013-02-02 23:32:00,
2013-02-02 16:41:00,43.0,24.0,-100.00,South,169,3.0,7.0,46,0.00,,,0.00,283.000000,,2013-02-02 23:41:00,
2013-02-02 16:52:00,43.0,24.0,-100.00,South,169,3.0,7.0,46,0.00,,,0.00,283.000000,,2013-02-02 23:52:00,
2013-02-02 17:21:00,41.0,23.0,-100.00,SSW,196,3.0,6.0,49,0.00,,,0.00,159.000000,,2013-02-03 00:21:00,
2013-02-02 17:31:00,41.0,23.0,-100.00,SSW,196,3.0,6.0,49,0.00,,,0.00,159.000000,,2013-02-03 00:31:00,
2013-02-02 17:41:00,41.0,23.0,-100.00,SSW,196,3.0,6.0,49,0.00,,,0.00,159.000000,,2013-02-03 00:41:00,
2013-02-02 17:51:00,41.0,23.0,-100.00,SSW,196,3.0,6.0,49,0.00,,,0.00,159.000000,,2013-02-03 00:51:00,
2013-02-02 18:21:00,34.0,23.0,-100.00,NNE,17,5.0,6.0,65,0.00,,,0.00,22.000000,,2013-02-03 01:21:00,
2013-02-02 18:32:00,34.0,23.0,-100.00,NNE,17,5.0,6.0,65,0.00,,,0.00,22.000000,,2013-02-03 01:32:00,
2013-02-02 18:41:00,34.0,23.0,-100.00,NNE,17,5.0,6.0,65,0.00,,,0.00,22.000000,,2013-02-03 01:41:00,
2013-02-02 18:51:00,34.0,23.0,-100.00,NNE,17,5.0,6.0,65,0.00,,,0.00,22.000000,,2013-02-03 01:51:00,
2013-02-02 19:11:00,31.0,22.0,-100.00,NNE,24,6.0,8.0,70,0.00,,,0.00,0.000000,,2013-02-03 02:11:00,
2013-02-02 19:21:00,31.0,22.0,-100.00,NNE,24,6.0,8.0,70,0.00,,,0.00,0.000000,,2013-02-03 02:21:00,
2013-02-02 19:31:00,31.0,22.0,-100.00,NNE,24,6.0,8.0,70,0.00,,,0.00,0.000000,,2013-02-03 02:31:00,
2013-02-02 19:41:00,31.0,22.0,-100.00,NNE,24,6.0,8.0,70,0.00,,,0.00,0.000000,,2013-02-03 02:41:00,
2013-02-02 19:52:00,31.0,22.0,-100.00,NNE,24,6.0,8.0,70,0.00,,,0.00,0.000000,,2013-02-03 02:52:00,
2013-02-02 20:21:00,31.0,20.0,-100.00,NNE,23,5.0,7.0,63,0.00,,,0.00,0.000000,,2013-02-03 03:21:00,
2013-02-02 20:31:00,31.0,20.0,-100.00,NNE,23,5.0,7.0,63,0.00,,,0.00,0.000000,,2013-02-03 03:31:00,
2013-02-02 20:41:00,31.0,20.0,-100.00,NNE,23,5.0,7.0,63,0.00,,,0.00,0.000000,,2013-02-03 03:41:00,
2013-02-02 20:51:00,31.0,20.0,-100.00,NNE,23,5.0,7.0,63,0.00,,,0.00,0.000000,,2013-02-03 03:51:00,
2013-02-02 21:21:00,30.0,19.0,-100.00,NE,43,2.0,6.0,64,0.00,,,0.00,0.000000,,2013-02-03 04:21:00,
2013-02-02 21:31:00,30.0,19.0,-100.00,NE,43,2.0,6.0,64,0.00,,,0.00,0.000000,,2013-02-03 04:31:00,
2013-02-02 21:42:00,30.0,19.0,-100.00,NE,43,2.0,6.0,64,0.00,,,0.00,0.000000,,2013-02-03 04:42:00,
2013-02-02 21:51:00,30.0,19.0,-100.00,NE,43,2.0,6.0,64,0.00,,,0.00,0.000000,,2013-02-03 04:51:00,
2013-02-02 22:22:00,30.0,20.0,-100.00,North,4,4.0,6.0,67,0.00,,,0.00,0.000000,,2013-02-03 05:22:00,
2013-02-02 22:32:00,30.0,20.0,-100.00,North,4,4.0,6.0,67,0.00,,,0.00,0.000000,,2013-02-03 05:32:00,
2013-02-02 22:41:00,30.0,20.0,-100.00,North,4,4.0,6.0,67,0.00,,,0.00,0.000000,,2013-02-03 05:41:00,
2013-02-02 22:52:00,30.0,20.0,-100.00,North,4,4.0,6.0,67,0.00,,,0.00,0.000000,,2013-02-03 05:52:00,
2013-02-02 23:21:00,30.0,21.0,-100.00,NE,49,1.0,5.0,69,0.00,,,0.00,0.000000,,2013-02-03 06:21:00,
2013-02-02 23:32:00,30.0,21.0,-100.00,NE,49,1.0,5.0,69,0.00,,,0.00,0.000000,,2013-02-03 06:32:00,
2013-02-02 23:41:00,30.0,21.0,-100.00,NE,49,1.0,5.0,69,0.00,,,0.00,0.000000,,2013-02-03 06:41:00,
2013-02-02 23:52:00,30.0,21.0,-100.00,NE,49,1.0,5.0,69,0.00,,,0.00,0.000000,,2013-02-03 06:52:00,